sensor_id;sensor_type;location;lat;lon;timestamp;temperature;humidity
69393;SHT31;56582;44.624;20.378;2024-02-23T00:02:18;11.21;60.44
69393;SHT31;56582;44.624;20.378;2024-02-23T00:04:44;10.95;59.81
69393;SHT31;56582;44.624;20.378;2024-02-23T00:07:10;10.93;61.19
69393;SHT31;56582;44.624;20.378;2024-02-23T00:09:37;10.96;61.48
69393;SHT31;56582;44.624;20.378;2024-02-23T00:12:03;10.79;60.40
69393;SHT31;56582;44.624;20.378;2024-02-23T00:14:29;10.79;60.11
69393;SHT31;56582;44.624;20.378;2024-02-23T00:16:56;10.79;61.10
69393;SHT31;56582;44.624;20.378;2024-02-23T00:19:22;10.63;60.25
69393;SHT31;56582;44.624;20.378;2024-02-23T00:21:49;10.58;60.92
69393;SHT31;56582;44.624;20.378;2024-02-23T00:24:16;10.69;60.97
69393;SHT31;56582;44.624;20.378;2024-02-23T00:26:42;10.72;60.25
69393;SHT31;56582;44.624;20.378;2024-02-23T00:29:08;10.63;60.99
69393;SHT31;56582;44.624;20.378;2024-02-23T00:31:34;10.70;62.64
69393;SHT31;56582;44.624;20.378;2024-02-23T00:34:01;10.66;60.76
69393;SHT31;56582;44.624;20.378;2024-02-23T00:36:26;10.69;60.43
69393;SHT31;56582;44.624;20.378;2024-02-23T00:38:53;10.72;60.66
69393;SHT31;56582;44.624;20.378;2024-02-23T00:41:18;10.70;59.94
69393;SHT31;56582;44.624;20.378;2024-02-23T00:43:44;10.68;60.49
69393;SHT31;56582;44.624;20.378;2024-02-23T00:46:09;10.77;60.55
69393;SHT31;56582;44.624;20.378;2024-02-23T00:48:35;10.75;61.00
69393;SHT31;56582;44.624;20.378;2024-02-23T00:51:03;10.84;63.99
69393;SHT31;56582;44.624;20.378;2024-02-23T00:53:30;10.79;60.09
69393;SHT31;56582;44.624;20.378;2024-02-23T00:55:57;10.80;60.94
69393;SHT31;56582;44.624;20.378;2024-02-23T00:58:22;10.72;59.69
69393;SHT31;56582;44.624;20.378;2024-02-23T01:00:48;10.76;58.84
69393;SHT31;56582;44.624;20.378;2024-02-23T01:03:13;10.77;59.57
69393;SHT31;56582;44.624;20.378;2024-02-23T01:05:39;10.86;59.44
69393;SHT31;56582;44.624;20.378;2024-02-23T01:08:05;10.65;60.11
69393;SHT31;56582;44.624;20.378;2024-02-23T01:10:30;10.73;59.82
69393;SHT31;56582;44.624;20.378;2024-02-23T01:12:56;10.68;61.38
69393;SHT31;56582;44.624;20.378;2024-02-23T01:15:22;10.65;60.30
69393;SHT31;56582;44.624;20.378;2024-02-23T01:17:48;10.72;61.56
69393;SHT31;56582;44.624;20.378;2024-02-23T01:20:13;10.77;60.63
69393;SHT31;56582;44.624;20.378;2024-02-23T01:22:39;10.79;60.70
69393;SHT31;56582;44.624;20.378;2024-02-23T01:25:05;10.81;60.01
69393;SHT31;56582;44.624;20.378;2024-02-23T01:27:30;10.75;60.45
69393;SHT31;56582;44.624;20.378;2024-02-23T01:29:56;10.81;60.37
69393;SHT31;56582;44.624;20.378;2024-02-23T01:32:22;10.77;59.95
69393;SHT31;56582;44.624;20.378;2024-02-23T01:34:47;10.95;59.78
69393;SHT31;56582;44.624;20.378;2024-02-23T01:37:13;10.93;58.73
69393;SHT31;56582;44.624;20.378;2024-02-23T01:39:38;10.97;58.92
69393;SHT31;56582;44.624;20.378;2024-02-23T01:42:04;10.87;59.83
69393;SHT31;56582;44.624;20.378;2024-02-23T01:44:30;10.84;58.96
69393;SHT31;56582;44.624;20.378;2024-02-23T01:46:55;10.75;59.57
69393;SHT31;56582;44.624;20.378;2024-02-23T01:49:21;10.84;59.05
69393;SHT31;56582;44.624;20.378;2024-02-23T01:51:48;10.93;62.03
69393;SHT31;56582;44.624;20.378;2024-02-23T01:54:15;10.89;58.38
69393;SHT31;56582;44.624;20.378;2024-02-23T01:56:41;10.97;58.41
69393;SHT31;56582;44.624;20.378;2024-02-23T01:59:08;10.93;58.83
69393;SHT31;56582;44.624;20.378;2024-02-23T02:01:35;10.84;58.74
69393;SHT31;56582;44.624;20.378;2024-02-23T02:04:01;10.92;58.42
69393;SHT31;56582;44.624;20.378;2024-02-23T02:06:26;10.83;58.84
69393;SHT31;56582;44.624;20.378;2024-02-23T02:08:53;10.76;59.05
69393;SHT31;56582;44.624;20.378;2024-02-23T02:11:19;10.86;59.16
69393;SHT31;56582;44.624;20.378;2024-02-23T02:13:44;10.89;58.83
69393;SHT31;56582;44.624;20.378;2024-02-23T02:16:10;10.97;58.48
69393;SHT31;56582;44.624;20.378;2024-02-23T02:18:36;10.99;58.21
69393;SHT31;56582;44.624;20.378;2024-02-23T02:21:02;10.92;58.55
69393;SHT31;56582;44.624;20.378;2024-02-23T02:23:27;10.86;59.17
69393;SHT31;56582;44.624;20.378;2024-02-23T02:25:56;10.89;58.79
69393;SHT31;56582;44.624;20.378;2024-02-23T02:28:23;10.81;59.10
69393;SHT31;56582;44.624;20.378;2024-02-23T02:30:50;10.80;58.93
69393;SHT31;56582;44.624;20.378;2024-02-23T02:33:15;10.92;58.87
69393;SHT31;56582;44.624;20.378;2024-02-23T02:35:41;10.90;59.29
69393;SHT31;56582;44.624;20.378;2024-02-23T02:38:06;10.75;59.87
69393;SHT31;56582;44.624;20.378;2024-02-23T02:40:32;10.84;59.17
69393;SHT31;56582;44.624;20.378;2024-02-23T02:42:58;10.77;60.20
69393;SHT31;56582;44.624;20.378;2024-02-23T02:45:23;10.72;59.68
69393;SHT31;56582;44.624;20.378;2024-02-23T02:47:49;10.73;59.93
69393;SHT31;56582;44.624;20.378;2024-02-23T02:50:15;10.73;59.56
69393;SHT31;56582;44.624;20.378;2024-02-23T02:52:41;10.76;59.62
69393;SHT31;56582;44.624;20.378;2024-02-23T02:55:07;10.86;59.07
69393;SHT31;56582;44.624;20.378;2024-02-23T02:57:32;10.95;60.13
69393;SHT31;56582;44.624;20.378;2024-02-23T02:59:58;10.92;59.84
69393;SHT31;56582;44.624;20.378;2024-02-23T03:02:23;10.83;59.35
69393;SHT31;56582;44.624;20.378;2024-02-23T03:04:50;10.92;58.97
69393;SHT31;56582;44.624;20.378;2024-02-23T03:07:18;10.86;59.74
69393;SHT31;56582;44.624;20.378;2024-02-23T03:09:44;10.79;60.11
69393;SHT31;56582;44.624;20.378;2024-02-23T03:12:10;10.76;59.62
69393;SHT31;56582;44.624;20.378;2024-02-23T03:14:36;10.73;60.05
69393;SHT31;56582;44.624;20.378;2024-02-23T03:17:04;10.73;61.31
69393;SHT31;56582;44.624;20.378;2024-02-23T03:19:30;10.80;62.45
69393;SHT31;56582;44.624;20.378;2024-02-23T03:21:55;10.86;65.40
69393;SHT31;56582;44.624;20.378;2024-02-23T03:24:21;10.95;63.42
69393;SHT31;56582;44.624;20.378;2024-02-23T03:26:46;10.89;62.01
69393;SHT31;56582;44.624;20.378;2024-02-23T03:29:12;10.86;60.51
69393;SHT31;56582;44.624;20.378;2024-02-23T03:31:37;10.90;60.95
69393;SHT31;56582;44.624;20.378;2024-02-23T03:34:03;10.86;60.60
69393;SHT31;56582;44.624;20.378;2024-02-23T03:36:29;10.90;60.55
69393;SHT31;56582;44.624;20.378;2024-02-23T03:38:54;10.93;61.75
69393;SHT31;56582;44.624;20.378;2024-02-23T03:41:19;11.03;61.63
69393;SHT31;56582;44.624;20.378;2024-02-23T03:43:45;11.04;60.63
69393;SHT31;56582;44.624;20.378;2024-02-23T03:46:10;10.97;59.85
69393;SHT31;56582;44.624;20.378;2024-02-23T03:48:37;10.97;60.82
69393;SHT31;56582;44.624;20.378;2024-02-23T03:51:04;10.93;60.72
69393;SHT31;56582;44.624;20.378;2024-02-23T03:53:30;10.89;60.41
69393;SHT31;56582;44.624;20.378;2024-02-23T03:55:57;10.84;60.65
69393;SHT31;56582;44.624;20.378;2024-02-23T03:58:22;10.73;60.68
69393;SHT31;56582;44.624;20.378;2024-02-23T04:00:48;10.77;61.03
69393;SHT31;56582;44.624;20.378;2024-02-23T04:03:13;10.80;60.62
69393;SHT31;56582;44.624;20.378;2024-02-23T04:05:39;10.87;60.77
69393;SHT31;56582;44.624;20.378;2024-02-23T04:08:05;10.81;60.87
69393;SHT31;56582;44.624;20.378;2024-02-23T04:10:30;10.75;61.04
69393;SHT31;56582;44.624;20.378;2024-02-23T04:12:57;10.81;60.92
69393;SHT31;56582;44.624;20.378;2024-02-23T04:15:23;10.86;61.06
69393;SHT31;56582;44.624;20.378;2024-02-23T04:17:48;10.81;61.20
69393;SHT31;56582;44.624;20.378;2024-02-23T04:20:15;10.77;60.94
69393;SHT31;56582;44.624;20.378;2024-02-23T04:22:40;10.69;61.60
69393;SHT31;56582;44.624;20.378;2024-02-23T04:25:06;10.79;61.41
69393;SHT31;56582;44.624;20.378;2024-02-23T04:27:32;10.83;61.00
69393;SHT31;56582;44.624;20.378;2024-02-23T04:29:57;10.79;61.72
69393;SHT31;56582;44.624;20.378;2024-02-23T04:32:23;10.86;61.11
69393;SHT31;56582;44.624;20.378;2024-02-23T04:34:49;10.79;61.31
69393;SHT31;56582;44.624;20.378;2024-02-23T04:37:14;10.77;61.49
69393;SHT31;56582;44.624;20.378;2024-02-23T04:39:39;10.87;61.17
69393;SHT31;56582;44.624;20.378;2024-02-23T04:42:07;10.89;61.56
69393;SHT31;56582;44.624;20.378;2024-02-23T04:44:34;10.79;62.08
69393;SHT31;56582;44.624;20.378;2024-02-23T04:47:00;10.75;62.09
69393;SHT31;56582;44.624;20.378;2024-02-23T04:49:25;10.86;61.70
69393;SHT31;56582;44.624;20.378;2024-02-23T04:51:51;10.81;61.56
69393;SHT31;56582;44.624;20.378;2024-02-23T04:54:17;10.81;61.84
69393;SHT31;56582;44.624;20.378;2024-02-23T04:56:42;10.77;61.87
69393;SHT31;56582;44.624;20.378;2024-02-23T04:59:08;10.65;62.32
69393;SHT31;56582;44.624;20.378;2024-02-23T05:01:37;10.72;65.40
69393;SHT31;56582;44.624;20.378;2024-02-23T05:04:03;10.75;62.61
69393;SHT31;56582;44.624;20.378;2024-02-23T05:06:29;10.69;63.12
69393;SHT31;56582;44.624;20.378;2024-02-23T05:08:55;10.69;64.02
69393;SHT31;56582;44.624;20.378;2024-02-23T05:11:20;10.76;64.33
69393;SHT31;56582;44.624;20.378;2024-02-23T05:13:47;10.73;62.47
69393;SHT31;56582;44.624;20.378;2024-02-23T05:16:14;10.62;63.43
69393;SHT31;56582;44.624;20.378;2024-02-23T05:18:39;10.69;63.25
69393;SHT31;56582;44.624;20.378;2024-02-23T05:21:05;10.79;62.96
69393;SHT31;56582;44.624;20.378;2024-02-23T05:23:31;10.75;62.69
69393;SHT31;56582;44.624;20.378;2024-02-23T05:25:56;10.73;63.00
69393;SHT31;56582;44.624;20.378;2024-02-23T05:28:22;10.76;63.06
69393;SHT31;56582;44.624;20.378;2024-02-23T05:30:47;10.77;62.85
69393;SHT31;56582;44.624;20.378;2024-02-23T05:33:13;10.73;62.56
69393;SHT31;56582;44.624;20.378;2024-02-23T05:35:39;10.68;63.32
69393;SHT31;56582;44.624;20.378;2024-02-23T05:38:04;10.76;62.42
69393;SHT31;56582;44.624;20.378;2024-02-23T05:40:31;10.87;62.23
69393;SHT31;56582;44.624;20.378;2024-02-23T05:42:58;10.75;63.39
69393;SHT31;56582;44.624;20.378;2024-02-23T05:45:23;10.76;62.85
69393;SHT31;56582;44.624;20.378;2024-02-23T05:47:49;10.77;62.84
69393;SHT31;56582;44.624;20.378;2024-02-23T05:50:15;10.81;62.86
69393;SHT31;56582;44.624;20.378;2024-02-23T05:52:40;10.72;64.24
69393;SHT31;56582;44.624;20.378;2024-02-23T05:55:06;10.72;62.98
69393;SHT31;56582;44.624;20.378;2024-02-23T05:57:32;10.77;62.56
69393;SHT31;56582;44.624;20.378;2024-02-23T06:00:01;10.83;62.41
69393;SHT31;56582;44.624;20.378;2024-02-23T06:02:27;10.80;62.65
69393;SHT31;56582;44.624;20.378;2024-02-23T06:04:52;10.83;62.64
69393;SHT31;56582;44.624;20.378;2024-02-23T06:07:18;10.84;62.61
69393;SHT31;56582;44.624;20.378;2024-02-23T06:09:44;10.76;63.36
69393;SHT31;56582;44.624;20.378;2024-02-23T06:12:09;10.86;63.00
69393;SHT31;56582;44.624;20.378;2024-02-23T06:14:35;10.80;62.75
69393;SHT31;56582;44.624;20.378;2024-02-23T06:17:02;10.79;62.85
69393;SHT31;56582;44.624;20.378;2024-02-23T06:19:28;10.65;63.86
69393;SHT31;56582;44.624;20.378;2024-02-23T06:21:54;10.73;63.67
69393;SHT31;56582;44.624;20.378;2024-02-23T06:24:19;10.59;64.48
69393;SHT31;56582;44.624;20.378;2024-02-23T06:26:45;10.60;64.29
69393;SHT31;56582;44.624;20.378;2024-02-23T06:29:11;10.75;63.80
69393;SHT31;56582;44.624;20.378;2024-02-23T06:31:38;10.81;63.30
69393;SHT31;56582;44.624;20.378;2024-02-23T06:34:04;10.84;63.98
69393;SHT31;56582;44.624;20.378;2024-02-23T06:36:30;10.97;63.23
69393;SHT31;56582;44.624;20.378;2024-02-23T06:38:56;10.99;63.70
69393;SHT31;56582;44.624;20.378;2024-02-23T06:41:22;11.00;63.18
69393;SHT31;56582;44.624;20.378;2024-02-23T06:43:47;11.00;63.65
69393;SHT31;56582;44.624;20.378;2024-02-23T06:46:13;11.14;63.10
69393;SHT31;56582;44.624;20.378;2024-02-23T06:48:38;11.11;63.26
69393;SHT31;56582;44.624;20.378;2024-02-23T06:51:05;11.28;62.79
69393;SHT31;56582;44.624;20.378;2024-02-23T06:53:30;11.17;63.09
69393;SHT31;56582;44.624;20.378;2024-02-23T06:55:58;11.16;63.66
69393;SHT31;56582;44.624;20.378;2024-02-23T06:58:24;11.06;63.86
69393;SHT31;56582;44.624;20.378;2024-02-23T07:00:49;11.03;64.39
69393;SHT31;56582;44.624;20.378;2024-02-23T07:03:15;11.18;63.33
69393;SHT31;56582;44.624;20.378;2024-02-23T07:05:42;11.13;63.91
69393;SHT31;56582;44.624;20.378;2024-02-23T07:08:08;11.21;63.95
69393;SHT31;56582;44.624;20.378;2024-02-23T07:10:33;11.20;63.80
69393;SHT31;56582;44.624;20.378;2024-02-23T07:12:59;11.18;64.09
69393;SHT31;56582;44.624;20.378;2024-02-23T07:15:24;11.31;63.51
69393;SHT31;56582;44.624;20.378;2024-02-23T07:17:52;11.34;63.56
69393;SHT31;56582;44.624;20.378;2024-02-23T07:20:21;11.42;62.98
69393;SHT31;56582;44.624;20.378;2024-02-23T07:22:47;11.38;63.81
69393;SHT31;56582;44.624;20.378;2024-02-23T07:25:17;11.48;63.07
69393;SHT31;56582;44.624;20.378;2024-02-23T07:27:43;11.57;63.19
69393;SHT31;56582;44.624;20.378;2024-02-23T07:30:10;11.51;62.87
69393;SHT31;56582;44.624;20.378;2024-02-23T07:32:35;11.57;63.52
69393;SHT31;56582;44.624;20.378;2024-02-23T07:35:01;11.65;62.77
69393;SHT31;56582;44.624;20.378;2024-02-23T07:37:27;11.68;63.42
69393;SHT31;56582;44.624;20.378;2024-02-23T07:39:53;11.57;65.73
69393;SHT31;56582;44.624;20.378;2024-02-23T07:42:18;11.59;64.52
69393;SHT31;56582;44.624;20.378;2024-02-23T07:44:44;11.65;65.39
69393;SHT31;56582;44.624;20.378;2024-02-23T07:47:11;11.81;65.61
69393;SHT31;56582;44.624;20.378;2024-02-23T07:49:36;11.99;64.02
69393;SHT31;56582;44.624;20.378;2024-02-23T07:52:02;11.99;64.23
69393;SHT31;56582;44.624;20.378;2024-02-23T07:54:28;12.06;64.30
69393;SHT31;56582;44.624;20.378;2024-02-23T07:56:54;12.22;63.77
69393;SHT31;56582;44.624;20.378;2024-02-23T07:59:19;12.44;63.05
69393;SHT31;56582;44.624;20.378;2024-02-23T08:01:45;12.50;62.79
69393;SHT31;56582;44.624;20.378;2024-02-23T08:04:12;12.53;62.19
69393;SHT31;56582;44.624;20.378;2024-02-23T08:06:39;12.51;62.20
69393;SHT31;56582;44.624;20.378;2024-02-23T08:09:04;12.53;62.24
69393;SHT31;56582;44.624;20.378;2024-02-23T08:11:30;12.60;62.40
69393;SHT31;56582;44.624;20.378;2024-02-23T08:13:56;12.69;61.84
69393;SHT31;56582;44.624;20.378;2024-02-23T08:16:21;12.74;61.99
69393;SHT31;56582;44.624;20.378;2024-02-23T08:18:47;12.74;60.95
69393;SHT31;56582;44.624;20.378;2024-02-23T08:21:12;12.80;61.89
69393;SHT31;56582;44.624;20.378;2024-02-23T08:23:38;12.82;61.55
69393;SHT31;56582;44.624;20.378;2024-02-23T08:26:03;12.88;61.40
69393;SHT31;56582;44.624;20.378;2024-02-23T08:28:29;12.87;62.03
69393;SHT31;56582;44.624;20.378;2024-02-23T08:30:54;12.89;61.92
69393;SHT31;56582;44.624;20.378;2024-02-23T08:33:20;12.87;61.58
69393;SHT31;56582;44.624;20.378;2024-02-23T08:35:46;12.69;62.45
69393;SHT31;56582;44.624;20.378;2024-02-23T08:38:13;12.69;62.67
69393;SHT31;56582;44.624;20.378;2024-02-23T08:40:39;12.77;63.50
69393;SHT31;56582;44.624;20.378;2024-02-23T08:43:05;12.88;62.74
69393;SHT31;56582;44.624;20.378;2024-02-23T08:45:30;12.89;62.34
69393;SHT31;56582;44.624;20.378;2024-02-23T08:47:56;13.01;62.79
69393;SHT31;56582;44.624;20.378;2024-02-23T08:50:22;13.03;62.58
69393;SHT31;56582;44.624;20.378;2024-02-23T08:52:47;13.01;63.18
69393;SHT31;56582;44.624;20.378;2024-02-23T08:55:13;13.01;62.15
69393;SHT31;56582;44.624;20.378;2024-02-23T08:57:38;13.13;62.28
69393;SHT31;56582;44.624;20.378;2024-02-23T09:00:05;13.20;61.99
69393;SHT31;56582;44.624;20.378;2024-02-23T09:02:31;13.15;63.02
69393;SHT31;56582;44.624;20.378;2024-02-23T09:04:58;13.26;63.35
69393;SHT31;56582;44.624;20.378;2024-02-23T09:07:23;13.47;62.28
69393;SHT31;56582;44.624;20.378;2024-02-23T09:09:49;13.49;63.23
69393;SHT31;56582;44.624;20.378;2024-02-23T09:12:15;13.53;62.85
69393;SHT31;56582;44.624;20.378;2024-02-23T09:14:42;13.53;62.42
69393;SHT31;56582;44.624;20.378;2024-02-23T09:17:09;13.59;61.90
69393;SHT31;56582;44.624;20.378;2024-02-23T09:19:35;13.63;61.81
69393;SHT31;56582;44.624;20.378;2024-02-23T09:22:02;13.82;60.96
69393;SHT31;56582;44.624;20.378;2024-02-23T09:24:27;13.81;61.28
69393;SHT31;56582;44.624;20.378;2024-02-23T09:26:53;13.74;61.86
69393;SHT31;56582;44.624;20.378;2024-02-23T09:29:18;13.73;61.34
69393;SHT31;56582;44.624;20.378;2024-02-23T09:31:44;13.74;61.27
69393;SHT31;56582;44.624;20.378;2024-02-23T09:34:13;13.74;61.06
69393;SHT31;56582;44.624;20.378;2024-02-23T09:36:39;13.67;60.77
69393;SHT31;56582;44.624;20.378;2024-02-23T09:39:04;13.82;60.53
69393;SHT31;56582;44.624;20.378;2024-02-23T09:41:30;13.82;60.26
69393;SHT31;56582;44.624;20.378;2024-02-23T09:43:59;13.71;60.58
69393;SHT31;56582;44.624;20.378;2024-02-23T09:46:25;13.73;60.35
69393;SHT31;56582;44.624;20.378;2024-02-23T09:48:51;13.87;59.59
69393;SHT31;56582;44.624;20.378;2024-02-23T09:51:18;13.88;60.59
69393;SHT31;56582;44.624;20.378;2024-02-23T09:53:43;13.94;60.83
69393;SHT31;56582;44.624;20.378;2024-02-23T09:56:10;13.95;59.20
69393;SHT31;56582;44.624;20.378;2024-02-23T09:58:37;14.02;59.80
69393;SHT31;56582;44.624;20.378;2024-02-23T10:01:03;14.09;58.78
69393;SHT31;56582;44.624;20.378;2024-02-23T10:03:30;14.09;58.66
69393;SHT31;56582;44.624;20.378;2024-02-23T10:05:59;14.25;59.14
69393;SHT31;56582;44.624;20.378;2024-02-23T10:08:29;14.29;58.04
69393;SHT31;56582;44.624;20.378;2024-02-23T10:10:55;14.17;58.62
69393;SHT31;56582;44.624;20.378;2024-02-23T10:13:22;14.19;59.78
69393;SHT31;56582;44.624;20.378;2024-02-23T10:15:51;14.19;58.32
69393;SHT31;56582;44.624;20.378;2024-02-23T10:18:17;14.33;58.62
69393;SHT31;56582;44.624;20.378;2024-02-23T10:20:43;14.43;57.91
69393;SHT31;56582;44.624;20.378;2024-02-23T10:23:09;14.57;57.64
69393;SHT31;56582;44.624;20.378;2024-02-23T10:25:38;14.50;57.77
69393;SHT31;56582;44.624;20.378;2024-02-23T10:28:04;14.55;57.15
69393;SHT31;56582;44.624;20.378;2024-02-23T10:30:39;14.57;57.36
69393;SHT31;56582;44.624;20.378;2024-02-23T10:33:05;14.43;57.73
69393;SHT31;56582;44.624;20.378;2024-02-23T10:35:32;14.66;58.05
69393;SHT31;56582;44.624;20.378;2024-02-23T10:38:01;14.60;57.26
69393;SHT31;56582;44.624;20.378;2024-02-23T10:40:28;14.69;58.14
69393;SHT31;56582;44.624;20.378;2024-02-23T10:42:56;14.90;56.81
69393;SHT31;56582;44.624;20.378;2024-02-23T10:45:27;14.83;57.35
69393;SHT31;56582;44.624;20.378;2024-02-23T10:47:55;14.97;57.27
69393;SHT31;56582;44.624;20.378;2024-02-23T10:50:21;15.14;56.59
69393;SHT31;56582;44.624;20.378;2024-02-23T10:52:48;15.15;58.14
69393;SHT31;56582;44.624;20.378;2024-02-23T10:55:14;15.34;56.77
69393;SHT31;56582;44.624;20.378;2024-02-23T10:57:40;15.49;57.12
69393;SHT31;56582;44.624;20.378;2024-02-23T11:00:08;15.48;57.16
69393;SHT31;56582;44.624;20.378;2024-02-23T11:02:50;15.63;56.33
69393;SHT31;56582;44.624;20.378;2024-02-23T11:05:17;15.73;56.43
69393;SHT31;56582;44.624;20.378;2024-02-23T11:07:46;15.82;55.33
69393;SHT31;56582;44.624;20.378;2024-02-23T11:10:15;15.97;55.99
69393;SHT31;56582;44.624;20.378;2024-02-23T11:12:41;15.83;54.49
69393;SHT31;56582;44.624;20.378;2024-02-23T11:15:06;16.02;54.33
69393;SHT31;56582;44.624;20.378;2024-02-23T11:17:35;15.97;54.90
69393;SHT31;56582;44.624;20.378;2024-02-23T11:20:05;16.06;54.05
69393;SHT31;56582;44.624;20.378;2024-02-23T11:22:33;16.18;53.83
69393;SHT31;56582;44.624;20.378;2024-02-23T11:25:02;16.23;55.35
69393;SHT31;56582;44.624;20.378;2024-02-23T11:27:33;16.33;53.05
69393;SHT31;56582;44.624;20.378;2024-02-23T11:30:06;16.31;54.08
69393;SHT31;56582;44.624;20.378;2024-02-23T11:32:40;16.34;53.48
69393;SHT31;56582;44.624;20.378;2024-02-23T11:35:16;16.35;53.00
69393;SHT31;56582;44.624;20.378;2024-02-23T11:40:12;16.27;53.05
69393;SHT31;56582;44.624;20.378;2024-02-23T11:42:41;16.31;52.63
69393;SHT31;56582;44.624;20.378;2024-02-23T11:45:08;16.16;52.99
69393;SHT31;56582;44.624;20.378;2024-02-23T11:47:34;16.28;52.61
69393;SHT31;56582;44.624;20.378;2024-02-23T11:50:00;16.18;53.46
69393;SHT31;56582;44.624;20.378;2024-02-23T11:52:26;16.30;52.85
69393;SHT31;56582;44.624;20.378;2024-02-23T11:54:51;16.24;52.74
69393;SHT31;56582;44.624;20.378;2024-02-23T11:57:18;16.41;52.37
69393;SHT31;56582;44.624;20.378;2024-02-23T11:59:44;16.52;53.75
69393;SHT31;56582;44.624;20.378;2024-02-23T12:02:09;16.76;51.64
69393;SHT31;56582;44.624;20.378;2024-02-23T12:04:35;16.81;53.13
69393;SHT31;56582;44.624;20.378;2024-02-23T12:07:00;16.76;52.25
69393;SHT31;56582;44.624;20.378;2024-02-23T12:09:27;16.88;52.32
69393;SHT31;56582;44.624;20.378;2024-02-23T12:11:53;16.65;51.49
69393;SHT31;56582;44.624;20.378;2024-02-23T12:14:18;16.79;51.28
69393;SHT31;56582;44.624;20.378;2024-02-23T12:16:45;16.83;50.23
69393;SHT31;56582;44.624;20.378;2024-02-23T12:19:10;16.60;51.06
69393;SHT31;56582;44.624;20.378;2024-02-23T12:21:37;16.55;51.43
69393;SHT31;56582;44.624;20.378;2024-02-23T12:24:06;16.48;51.52
69393;SHT31;56582;44.624;20.378;2024-02-23T12:26:34;16.61;51.98
69393;SHT31;56582;44.624;20.378;2024-02-23T12:29:01;16.60;50.41
69393;SHT31;56582;44.624;20.378;2024-02-23T12:31:28;16.61;51.14
69393;SHT31;56582;44.624;20.378;2024-02-23T12:33:53;16.73;50.36
69393;SHT31;56582;44.624;20.378;2024-02-23T12:36:19;16.73;51.65
69393;SHT31;56582;44.624;20.378;2024-02-23T12:38:45;16.65;51.36
69393;SHT31;56582;44.624;20.378;2024-02-23T12:41:11;16.68;50.13
69393;SHT31;56582;44.624;20.378;2024-02-23T12:43:36;16.57;50.34
69393;SHT31;56582;44.624;20.378;2024-02-23T12:46:02;16.58;50.01
69393;SHT31;56582;44.624;20.378;2024-02-23T12:48:28;16.60;51.14
69393;SHT31;56582;44.624;20.378;2024-02-23T12:50:55;16.60;51.84
69393;SHT31;56582;44.624;20.378;2024-02-23T12:53:31;16.55;52.05
69393;SHT31;56582;44.624;20.378;2024-02-23T12:56:01;16.68;50.46
69393;SHT31;56582;44.624;20.378;2024-02-23T12:58:27;16.88;50.49
69393;SHT31;56582;44.624;20.378;2024-02-23T13:00:53;16.88;50.17
69393;SHT31;56582;44.624;20.378;2024-02-23T13:03:19;16.85;50.51
69393;SHT31;56582;44.624;20.378;2024-02-23T13:05:46;16.98;50.79
69393;SHT31;56582;44.624;20.378;2024-02-23T13:08:12;16.99;50.22
69393;SHT31;56582;44.624;20.378;2024-02-23T13:10:37;16.92;50.95
69393;SHT31;56582;44.624;20.378;2024-02-23T13:13:03;17.06;50.45
69393;SHT31;56582;44.624;20.378;2024-02-23T13:15:29;17.10;49.90
69393;SHT31;56582;44.624;20.378;2024-02-23T13:17:54;17.15;48.50
69393;SHT31;56582;44.624;20.378;2024-02-23T13:20:22;17.08;50.03
69393;SHT31;56582;44.624;20.378;2024-02-23T13:22:47;17.20;48.96
69393;SHT31;56582;44.624;20.378;2024-02-23T13:25:13;17.18;49.80
69393;SHT31;56582;44.624;20.378;2024-02-23T13:27:39;17.09;50.13
69393;SHT31;56582;44.624;20.378;2024-02-23T13:30:05;16.96;50.06
69393;SHT31;56582;44.624;20.378;2024-02-23T13:32:31;16.88;50.08
69393;SHT31;56582;44.624;20.378;2024-02-23T13:34:57;17.05;49.77
69393;SHT31;56582;44.624;20.378;2024-02-23T13:37:22;16.91;50.50
69393;SHT31;56582;44.624;20.378;2024-02-23T13:39:48;16.91;51.36
69393;SHT31;56582;44.624;20.378;2024-02-23T13:42:14;17.06;49.42
69393;SHT31;56582;44.624;20.378;2024-02-23T13:44:39;17.12;49.59
69393;SHT31;56582;44.624;20.378;2024-02-23T13:47:05;17.08;48.86
69393;SHT31;56582;44.624;20.378;2024-02-23T13:49:30;16.95;48.73
69393;SHT31;56582;44.624;20.378;2024-02-23T13:51:56;16.92;48.38
69393;SHT31;56582;44.624;20.378;2024-02-23T13:54:21;16.96;49.06
69393;SHT31;56582;44.624;20.378;2024-02-23T13:56:47;16.93;49.97
69393;SHT31;56582;44.624;20.378;2024-02-23T13:59:12;16.89;50.66
69393;SHT31;56582;44.624;20.378;2024-02-23T14:01:38;16.91;50.22
69393;SHT31;56582;44.624;20.378;2024-02-23T14:04:07;16.76;51.05
69393;SHT31;56582;44.624;20.378;2024-02-23T14:06:33;16.81;49.16
69393;SHT31;56582;44.624;20.378;2024-02-23T14:08:59;16.91;49.50
69393;SHT31;56582;44.624;20.378;2024-02-23T14:11:25;16.71;49.47
69393;SHT31;56582;44.624;20.378;2024-02-23T14:13:51;16.68;50.02
69393;SHT31;56582;44.624;20.378;2024-02-23T14:16:17;16.81;49.28
69393;SHT31;56582;44.624;20.378;2024-02-23T14:18:42;16.78;50.01
69393;SHT31;56582;44.624;20.378;2024-02-23T14:21:10;16.71;49.39
69393;SHT31;56582;44.624;20.378;2024-02-23T14:23:36;16.69;49.98
69393;SHT31;56582;44.624;20.378;2024-02-23T14:26:02;16.69;49.72
69393;SHT31;56582;44.624;20.378;2024-02-23T14:28:31;16.52;50.74
69393;SHT31;56582;44.624;20.378;2024-02-23T14:30:57;16.64;50.65
69393;SHT31;56582;44.624;20.378;2024-02-23T14:33:22;16.62;50.19
69393;SHT31;56582;44.624;20.378;2024-02-23T14:35:48;16.52;50.16
69393;SHT31;56582;44.624;20.378;2024-02-23T14:38:15;16.50;49.76
69393;SHT31;56582;44.624;20.378;2024-02-23T14:40:41;16.60;49.40
69393;SHT31;56582;44.624;20.378;2024-02-23T14:43:07;16.62;50.24
69393;SHT31;56582;44.624;20.378;2024-02-23T14:45:33;16.58;49.76
69393;SHT31;56582;44.624;20.378;2024-02-23T14:47:59;16.50;49.68
69393;SHT31;56582;44.624;20.378;2024-02-23T14:50:24;16.54;49.46
69393;SHT31;56582;44.624;20.378;2024-02-23T14:52:50;16.57;48.84
69393;SHT31;56582;44.624;20.378;2024-02-23T14:55:16;16.43;49.35
69393;SHT31;56582;44.624;20.378;2024-02-23T14:57:42;16.47;49.27
69393;SHT31;56582;44.624;20.378;2024-02-23T15:00:08;16.31;50.23
69393;SHT31;56582;44.624;20.378;2024-02-23T15:02:35;16.40;50.18
69393;SHT31;56582;44.624;20.378;2024-02-23T15:05:01;16.34;49.65
69393;SHT31;56582;44.624;20.378;2024-02-23T15:07:26;16.13;50.43
69393;SHT31;56582;44.624;20.378;2024-02-23T15:09:53;16.03;50.57
69393;SHT31;56582;44.624;20.378;2024-02-23T15:12:19;15.97;50.83